Time;durP1;ratioP1;P1;durP2;ratioP2;P2;SDS_P1;SDS_P2;PMS_P1;PMS_P2;Temp;Humidity;BMP_temperature;BMP_pressure;BME280_temperature;BME280_humidity;BME280_pressure;Samples;Min_cycle;Max_cycle;Signal;HPM_P1;HPM_P2
2021/01/23 00:02:01;;;;;;;103.47;44.95;;;;;;;;;;5114051;28;20082;-70
2021/01/23 00:04:46;;;;;;;100.93;41.50;;;;;;;;;;5114078;28;20382;-70
2021/01/23 00:07:31;;;;;;;113.45;43.38;;;;;;;;;;5113777;28;20039;-70
2021/01/23 00:10:17;;;;;;;107.72;46.28;;;;;;;;;;5113375;28;20043;-70
2021/01/23 00:13:24;;;;;;;108.18;43.30;;;;;;;;;;5113810;28;20039;-70
2021/01/23 00:16:09;;;;;;;116.00;46.65;;;;;;;;;;5113715;28;20107;-70
2021/01/23 00:18:54;;;;;;;111.95;45.30;;;;;;;;;;5113772;28;20044;-70
2021/01/23 00:21:40;;;;;;;112.22;47.25;;;;;;;;;;5113644;28;20040;-70
2021/01/23 00:24:25;;;;;;;122.63;51.92;;;;;;;;;;5113643;28;20119;-70
2021/01/23 00:27:11;;;;;;;132.73;55.50;;;;;;;;;;5113421;28;20043;-70
2021/01/23 00:29:58;;;;;;;121.28;50.60;;;;;;;;;;5113635;28;20506;-70
2021/01/23 00:32:43;;;;;;;108.63;48.83;;;;;;;;;;5113481;28;20043;-70
2021/01/23 00:35:28;;;;;;;109.55;48.85;;;;;;;;;;5113406;28;20075;-70
2021/01/23 00:38:13;;;;;;;112.55;47.88;;;;;;;;;;5113337;28;20044;-70
2021/01/23 00:40:59;;;;;;;121.13;54.00;;;;;;;;;;5113300;28;20494;-70
2021/01/23 00:43:45;;;;;;;105.72;48.50;;;;;;;;;;5113054;28;20043;-70
2021/01/23 00:46:30;;;;;;;94.07;43.13;;;;;;;;;;5112940;28;20417;-70
2021/01/23 00:49:15;;;;;;;103.10;46.40;;;;;;;;;;5113399;28;20400;-70
2021/01/23 00:52:01;;;;;;;100.18;45.33;;;;;;;;;;5111868;28;20497;-70
2021/01/23 00:54:46;;;;;;;104.30;45.38;;;;;;;;;;5112147;28;20043;-70
2021/01/23 00:57:31;;;;;;;115.78;46.60;;;;;;;;;;5113055;28;20456;-70
2021/01/23 01:00:17;;;;;;;112.07;48.00;;;;;;;;;;5112890;28;20069;-70
2021/01/23 01:03:05;;;;;;;117.57;52.80;;;;;;;;;;5111924;28;20459;-70
2021/01/23 01:06:00;;;;;;;108.90;50.63;;;;;;;;;;5111536;28;20544;-70
2021/01/23 01:08:45;;;;;;;115.00;50.78;;;;;;;;;;5112643;28;20097;-70
2021/01/23 01:11:30;;;;;;;105.97;49.55;;;;;;;;;;5112764;28;20588;-70
2021/01/23 01:14:15;;;;;;;91.32;48.33;;;;;;;;;;5112777;28;20489;-70
2021/01/23 01:17:01;;;;;;;97.25;48.10;;;;;;;;;;5112701;28;20048;-70
2021/01/23 01:19:46;;;;;;;89.90;46.35;;;;;;;;;;5112449;28;20040;-69
2021/01/23 01:22:32;;;;;;;82.47;44.97;;;;;;;;;;5112610;28;20040;-69
2021/01/23 01:25:17;;;;;;;88.80;44.75;;;;;;;;;;5112635;28;20036;-69
2021/01/23 01:28:02;;;;;;;86.65;49.47;;;;;;;;;;5112734;28;20047;-69
2021/01/23 01:30:48;;;;;;;79.80;43.83;;;;;;;;;;5112368;28;20035;-69
2021/01/23 01:33:33;;;;;;;101.25;50.13;;;;;;;;;;5112585;28;20048;-69
2021/01/23 01:36:19;;;;;;;88.47;46.25;;;;;;;;;;5112365;28;20246;-69
2021/01/23 01:39:04;;;;;;;96.13;46.90;;;;;;;;;;5112660;28;20504;-69
2021/01/23 01:41:49;;;;;;;90.18;46.17;;;;;;;;;;5112338;28;20043;-69
2021/01/23 01:44:35;;;;;;;86.05;44.33;;;;;;;;;;5112428;28;20158;-69
2021/01/23 01:47:20;;;;;;;99.40;48.38;;;;;;;;;;5111336;28;20039;-69
2021/01/23 01:50:05;;;;;;;91.80;49.17;;;;;;;;;;5112269;28;20118;-69
2021/01/23 01:52:51;;;;;;;97.72;53.42;;;;;;;;;;5112202;28;20040;-69
2021/01/23 01:55:36;;;;;;;98.07;50.60;;;;;;;;;;5112422;28;20040;-69
2021/01/23 01:58:22;;;;;;;95.13;52.65;;;;;;;;;;5112226;28;20116;-69
2021/01/23 02:01:07;;;;;;;99.78;52.60;;;;;;;;;;5111953;28;20126;-69
2021/01/23 02:04:00;;;;;;;100.38;54.67;;;;;;;;;;5111265;28;20047;-69
2021/01/23 02:06:58;;;;;;;110.75;54.83;;;;;;;;;;5111056;28;20047;-69
2021/01/23 02:09:49;;;;;;;111.22;54.80;;;;;;;;;;5111447;28;20043;-69
2021/01/23 02:12:43;;;;;;;109.05;54.05;;;;;;;;;;5111320;28;20044;-69
2021/01/23 02:15:29;;;;;;;100.40;51.22;;;;;;;;;;5091854;28;20048;-69
2021/01/23 02:18:14;;;;;;;119.68;58.72;;;;;;;;;;5090984;28;20395;-69
2021/01/23 02:21:18;;;;;;;106.97;56.17;;;;;;;;;;5091900;28;20040;-69
2021/01/23 02:24:04;;;;;;;94.60;49.47;;;;;;;;;;5111998;28;20453;-69
2021/01/23 02:27:08;;;;;;;113.00;57.47;;;;;;;;;;5111907;28;20048;-69
2021/01/23 02:30:05;;;;;;;112.07;57.58;;;;;;;;;;5112082;28;20048;-69
2021/01/23 02:32:51;;;;;;;111.30;57.92;;;;;;;;;;5113851;28;20525;-69
2021/01/23 02:35:36;;;;;;;102.97;55.17;;;;;;;;;;5114872;28;20039;-69
2021/01/23 02:38:22;;;;;;;108.93;56.40;;;;;;;;;;5114855;28;20036;-69
2021/01/23 02:41:07;;;;;;;96.53;55.47;;;;;;;;;;5114726;28;20477;-69
2021/01/23 02:43:52;;;;;;;112.75;58.30;;;;;;;;;;5114648;28;20052;-69
2021/01/23 02:46:37;;;;;;;103.55;55.85;;;;;;;;;;5115539;28;20122;-69
2021/01/23 02:49:23;;;;;;;101.50;55.67;;;;;;;;;;5115785;28;20044;-69
2021/01/23 02:52:20;;;;;;;100.22;56.08;;;;;;;;;;5114095;28;20047;-69
2021/01/23 02:55:06;;;;;;;107.65;56.72;;;;;;;;;;5114462;28;20035;-69
2021/01/23 02:57:52;;;;;;;97.70;54.97;;;;;;;;;;5114378;28;20131;-69
2021/01/23 03:00:37;;;;;;;94.65;52.67;;;;;;;;;;5114529;28;20047;-69
2021/01/23 03:03:22;;;;;;;86.30;50.75;;;;;;;;;;5115035;28;20051;-69
2021/01/23 03:06:08;;;;;;;95.13;51.83;;;;;;;;;;5115200;28;20040;-69
2021/01/23 03:08:53;;;;;;;96.50;55.65;;;;;;;;;;5113297;28;20047;-69
2021/01/23 03:11:38;;;;;;;97.65;54.90;;;;;;;;;;5114366;28;20048;-69
2021/01/23 03:14:23;;;;;;;91.97;51.90;;;;;;;;;;5114713;28;20043;-69
2021/01/23 03:17:09;;;;;;;90.88;53.58;;;;;;;;;;5114966;28;20083;-69
2021/01/23 03:19:54;;;;;;;96.97;52.30;;;;;;;;;;5115038;28;20428;-69
2021/01/23 03:22:39;;;;;;;90.82;53.22;;;;;;;;;;5114882;28;20385;-69
2021/01/23 03:25:27;;;;;;;88.72;51.20;;;;;;;;;;5110640;28;20493;-69
2021/01/23 03:28:13;;;;;;;86.45;49.47;;;;;;;;;;5114822;28;20050;-69
2021/01/23 03:30:58;;;;;;;89.05;52.40;;;;;;;;;;5114971;28;20131;-69
2021/01/23 03:33:43;;;;;;;90.60;50.55;;;;;;;;;;5114527;28;20039;-69
2021/01/23 03:36:29;;;;;;;75.32;44.92;;;;;;;;;;5114655;28;20052;-69
2021/01/23 03:39:14;;;;;;;77.15;47.17;;;;;;;;;;5114640;28;20119;-69
2021/01/23 03:41:59;;;;;;;75.80;48.45;;;;;;;;;;5114510;28;20474;-69
2021/01/23 03:44:45;;;;;;;72.82;43.97;;;;;;;;;;5114086;28;20043;-69
2021/01/23 03:47:30;;;;;;;73.22;44.30;;;;;;;;;;5114265;28;20123;-69
2021/01/23 03:50:16;;;;;;;77.53;43.67;;;;;;;;;;5114608;28;20040;-69
2021/01/23 03:53:01;;;;;;;64.63;40.42;;;;;;;;;;5114285;28;20035;-69
2021/01/23 03:55:47;;;;;;;62.78;40.97;;;;;;;;;;5114177;28;20044;-69
2021/01/23 03:58:32;;;;;;;66.38;40.53;;;;;;;;;;5114273;28;20043;-67
2021/01/23 04:01:18;;;;;;;62.10;40.50;;;;;;;;;;5137697;22;20067;-70
2021/01/23 04:04:03;;;;;;;69.75;40.00;;;;;;;;;;5078423;28;20040;-70
2021/01/23 04:06:48;;;;;;;61.42;39.85;;;;;;;;;;5081177;28;20490;-70
2021/01/23 04:09:33;;;;;;;64.28;40.70;;;;;;;;;;5097229;28;20118;-70
2021/01/23 04:12:19;;;;;;;62.45;39.00;;;;;;;;;;5113811;28;20119;-70
2021/01/23 04:15:04;;;;;;;56.63;37.92;;;;;;;;;;5095028;28;20044;-70
2021/01/23 04:17:50;;;;;;;60.65;36.88;;;;;;;;;;5096123;28;20043;-70
2021/01/23 04:20:35;;;;;;;48.92;34.05;;;;;;;;;;5113681;28;20504;-70
2021/01/23 04:23:20;;;;;;;51.78;35.50;;;;;;;;;;5113796;28;20035;-71
2021/01/23 04:26:06;;;;;;;53.35;33.03;;;;;;;;;;5098343;28;20039;-70
2021/01/23 04:28:52;;;;;;;50.65;32.95;;;;;;;;;;5105315;28;20040;-70
2021/01/23 04:31:37;;;;;;;44.45;31.58;;;;;;;;;;5093102;28;20490;-70
2021/01/23 04:34:22;;;;;;;50.30;33.22;;;;;;;;;;5093242;28;20368;-70
2021/01/23 04:37:07;;;;;;;44.03;32.05;;;;;;;;;;5092994;28;20044;-71
2021/01/23 04:39:53;;;;;;;44.22;32.58;;;;;;;;;;5064920;28;20051;-71
2021/01/23 04:42:47;;;;;;;52.53;33.13;;;;;;;;;;5092877;28;20033;-71
2021/01/23 04:45:32;;;;;;;47.83;34.13;;;;;;;;;;5077543;28;20048;-71
2021/01/23 04:48:17;;;;;;;55.10;33.75;;;;;;;;;;5092728;28;20048;-71
2021/01/23 04:51:03;;;;;;;45.47;32.30;;;;;;;;;;5097459;28;20040;-71
2021/01/23 04:53:48;;;;;;;55.63;34.05;;;;;;;;;;5113180;28;20500;-71
2021/01/23 04:56:34;;;;;;;56.40;36.85;;;;;;;;;;5095845;28;20088;-71
2021/01/23 04:59:19;;;;;;;53.17;37.17;;;;;;;;;;5112893;28;20118;-71
2021/01/23 05:02:17;;;;;;;51.92;33.55;;;;;;;;;;5097409;28;20438;-71
2021/01/23 05:05:04;;;;;;;45.63;34.45;;;;;;;;;;5096009;28;20075;-71
2021/01/23 05:07:49;;;;;;;50.80;35.75;;;;;;;;;;5097696;28;20515;-72
2021/01/23 05:10:34;;;;;;;48.65;34.10;;;;;;;;;;5111125;28;20040;-72
2021/01/23 05:13:19;;;;;;;47.83;35.88;;;;;;;;;;5081678;28;20040;-72
2021/01/23 05:16:04;;;;;;;47.03;33.90;;;;;;;;;;5099843;28;20517;-72
2021/01/23 05:19:01;;;;;;;50.50;35.75;;;;;;;;;;5095161;28;20040;-72
2021/01/23 05:22:00;;;;;;;54.08;34.53;;;;;;;;;;5095371;28;20043;-72
2021/01/23 05:24:51;;;;;;;45.35;34.05;;;;;;;;;;5097370;28;20047;-71
2021/01/23 05:27:45;;;;;;;45.00;33.50;;;;;;;;;;5104942;28;20118;-70
2021/01/23 05:30:50;;;;;;;47.95;33.92;;;;;;;;;;5077093;28;20506;-70
2021/01/23 05:33:35;;;;;;;42.97;34.72;;;;;;;;;;5079780;28;20438;-70
2021/01/23 05:36:21;;;;;;;43.00;32.72;;;;;;;;;;5062825;28;20044;-71
2021/01/23 05:39:06;;;;;;;49.60;36.47;;;;;;;;;;5092851;28;20457;-71
2021/01/23 05:42:04;;;;;;;49.38;36.85;;;;;;;;;;5112332;28;20071;-70
2021/01/23 05:45:08;;;;;;;54.75;35.83;;;;;;;;;;5112414;28;20039;-71
2021/01/23 05:47:53;;;;;;;46.55;35.50;;;;;;;;;;5094923;28;20044;-71
2021/01/23 05:50:38;;;;;;;52.22;35.10;;;;;;;;;;5092066;28;20044;-71
2021/01/23 05:53:24;;;;;;;53.13;36.45;;;;;;;;;;5097121;28;20058;-70
2021/01/23 05:56:09;;;;;;;50.78;37.30;;;;;;;;;;5112293;28;20044;-70
2021/01/23 05:58:55;;;;;;;55.95;38.60;;;;;;;;;;5112303;28;20493;-70
2021/01/23 06:01:40;;;;;;;53.15;38.88;;;;;;;;;;5095306;28;20386;-71
2021/01/23 06:04:26;;;;;;;52.60;36.10;;;;;;;;;;5097108;28;20043;-70
2021/01/23 06:07:11;;;;;;;54.05;37.95;;;;;;;;;;5107710;28;20481;-70
2021/01/23 06:09:56;;;;;;;59.72;37.72;;;;;;;;;;5080708;28;20115;-71
2021/01/23 06:12:41;;;;;;;52.60;37.10;;;;;;;;;;5102201;28;20060;-71
2021/01/23 06:15:32;;;;;;;55.78;37.70;;;;;;;;;;5086436;28;20043;-70
2021/01/23 06:18:35;;;;;;;56.17;40.38;;;;;;;;;;5103365;28;20537;-71
2021/01/23 06:21:20;;;;;;;63.28;41.58;;;;;;;;;;5095564;28;20040;-72
2021/01/23 06:24:06;;;;;;;48.78;37.50;;;;;;;;;;5103982;28;20039;-70
2021/01/23 06:26:57;;;;;;;56.35;37.88;;;;;;;;;;5115981;28;20036;-70
2021/01/23 06:29:43;;;;;;;52.17;39.13;;;;;;;;;;5090403;28;20089;-71
2021/01/23 06:32:28;;;;;;;56.65;38.30;;;;;;;;;;5080271;28;20044;-70
2021/01/23 06:35:14;;;;;;;52.65;37.33;;;;;;;;;;5096597;28;20077;-71
2021/01/23 06:38:12;;;;;;;50.72;37.05;;;;;;;;;;5080088;28;20410;-71
2021/01/23 06:40:57;;;;;;;54.65;37.08;;;;;;;;;;5095248;28;20461;-71
2021/01/23 06:44:02;;;;;;;49.38;36.42;;;;;;;;;;5096458;28;20523;-70
2021/01/23 06:46:50;;;;;;;53.08;37.00;;;;;;;;;;5095140;28;20391;-70
2021/01/23 06:49:40;;;;;;;52.00;35.53;;;;;;;;;;5104320;28;20035;-71
2021/01/23 06:52:26;;;;;;;48.47;36.92;;;;;;;;;;5115414;28;20039;-71
2021/01/23 06:55:11;;;;;;;53.83;36.78;;;;;;;;;;5115538;28;20040;-72
2021/01/23 06:57:57;;;;;;;50.33;37.10;;;;;;;;;;5094834;28;20044;-71
2021/01/23 07:00:42;;;;;;;53.53;36.80;;;;;;;;;;5085808;28;20044;-71
2021/01/23 07:03:28;;;;;;;52.17;37.55;;;;;;;;;;5089324;28;20051;-71
2021/01/23 07:06:13;;;;;;;44.13;33.97;;;;;;;;;;5079677;28;20051;-71
2021/01/23 07:08:58;;;;;;;45.38;33.42;;;;;;;;;;5094899;28;20040;-71
2021/01/23 07:11:44;;;;;;;49.78;33.85;;;;;;;;;;5094673;28;20075;-71
2021/01/23 07:14:29;;;;;;;44.53;32.72;;;;;;;;;;5094765;28;20068;-71
2021/01/23 07:17:14;;;;;;;48.55;33.95;;;;;;;;;;5089579;28;20123;-72
2021/01/23 07:20:02;;;;;;;50.53;36.53;;;;;;;;;;5095932;28;20036;-71
2021/01/23 07:22:47;;;;;;;44.13;34.13;;;;;;;;;;5108012;28;20036;-71
2021/01/23 07:25:33;;;;;;;50.75;33.88;;;;;;;;;;5079402;28;20055;-71
2021/01/23 07:28:19;;;;;;;48.53;34.30;;;;;;;;;;5103058;28;20425;-72
2021/01/23 07:31:17;;;;;;;45.67;33.22;;;;;;;;;;5099353;28;20044;-71
2021/01/23 07:34:10;;;;;;;45.60;32.72;;;;;;;;;;5102722;28;20501;-71
2021/01/23 07:36:55;;;;;;;47.08;32.40;;;;;;;;;;5079124;28;20040;-71
2021/01/23 07:39:40;;;;;;;43.22;31.58;;;;;;;;;;5097570;28;20044;-71
2021/01/23 07:42:26;;;;;;;42.47;30.38;;;;;;;;;;5094033;28;20040;-71
2021/01/23 07:45:12;;;;;;;41.03;29.55;;;;;;;;;;5095485;28;20047;-71
2021/01/23 07:47:58;;;;;;;41.10;30.10;;;;;;;;;;5078874;28;20043;-70
2021/01/23 07:50:43;;;;;;;39.85;29.20;;;;;;;;;;5097338;28;20044;-71
2021/01/23 07:53:28;;;;;;;40.08;29.90;;;;;;;;;;5082153;28;20036;-72
2021/01/23 07:56:17;;;;;;;41.10;29.15;;;;;;;;;;5093789;28;20093;-71
2021/01/23 07:59:02;;;;;;;42.85;32.03;;;;;;;;;;5080358;28;20124;-71
2021/01/23 08:01:48;;;;;;;39.13;29.20;;;;;;;;;;5112428;28;20497;-70
2021/01/23 08:04:34;;;;;;;38.80;29.92;;;;;;;;;;5096495;28;20118;-71
2021/01/23 08:07:22;;;;;;;41.50;28.40;;;;;;;;;;5113902;28;20093;-71
2021/01/23 08:10:20;;;;;;;39.65;27.92;;;;;;;;;;5113956;28;20036;-72
2021/01/23 08:13:05;;;;;;;43.53;29.30;;;;;;;;;;5081405;28;20093;-71
2021/01/23 08:15:51;;;;;;;36.65;26.38;;;;;;;;;;5079767;28;20387;-70
2021/01/23 08:18:36;;;;;;;36.95;27.25;;;;;;;;;;5079397;28;20501;-71
2021/01/23 08:21:22;;;;;;;42.75;28.75;;;;;;;;;;5093268;28;20127;-71
2021/01/23 08:24:28;;;;;;;38.80;28.63;;;;;;;;;;5094271;28;20502;-71
2021/01/23 08:27:19;;;;;;;39.88;28.85;;;;;;;;;;5099635;28;20075;-71
2021/01/23 08:30:07;;;;;;;35.00;26.98;;;;;;;;;;5063342;28;20402;-72
2021/01/23 08:32:52;;;;;;;35.08;27.73;;;;;;;;;;5094826;28;20048;-72
2021/01/23 08:35:39;;;;;;;42.30;27.95;;;;;;;;;;5102427;28;20036;-72
2021/01/23 08:38:24;;;;;;;34.85;27.10;;;;;;;;;;5102067;28;20040;-72
2021/01/23 08:41:09;;;;;;;39.22;24.92;;;;;;;;;;5086955;28;20039;-72
2021/01/23 08:43:55;;;;;;;35.00;26.55;;;;;;;;;;5103454;28;20048;-72
2021/01/23 08:46:40;;;;;;;37.38;25.40;;;;;;;;;;5103445;28;20039;-72
2021/01/23 08:49:25;;;;;;;34.50;25.75;;;;;;;;;;5104794;28;20116;-72
2021/01/23 08:52:11;;;;;;;34.58;25.05;;;;;;;;;;5113259;28;20115;-72
2021/01/23 08:54:56;;;;;;;32.13;24.85;;;;;;;;;;5111288;28;20498;-72
2021/01/23 08:57:41;;;;;;;35.05;26.08;;;;;;;;;;5111285;28;20110;-72
2021/01/23 09:00:27;;;;;;;31.70;25.48;;;;;;;;;;5096924;28;20127;-71
2021/01/23 09:03:12;;;;;;;33.67;24.02;;;;;;;;;;5092604;28;20113;-71
2021/01/23 09:05:57;;;;;;;30.08;23.58;;;;;;;;;;5092672;28;20490;-71
2021/01/23 09:08:44;;;;;;;29.17;23.75;;;;;;;;;;5104049;28;20048;-72
2021/01/23 09:11:30;;;;;;;31.85;21.95;;;;;;;;;;5112734;28;20039;-71
2021/01/23 09:14:15;;;;;;;29.05;22.52;;;;;;;;;;5096978;28;20043;-71
2021/01/23 09:17:00;;;;;;;31.15;22.08;;;;;;;;;;5092337;28;20115;-72
2021/01/23 09:19:46;;;;;;;31.13;23.20;;;;;;;;;;5092376;28;20406;-71
2021/01/23 09:22:31;;;;;;;32.63;23.08;;;;;;;;;;5110481;28;20518;-71
2021/01/23 09:25:18;;;;;;;28.98;22.42;;;;;;;;;;5091146;28;20032;-71
2021/01/23 09:28:03;;;;;;;28.88;21.45;;;;;;;;;;5105206;28;20043;-71
2021/01/23 09:30:49;;;;;;;24.02;20.65;;;;;;;;;;5101538;28;20043;-72
2021/01/23 09:33:34;;;;;;;29.15;20.08;;;;;;;;;;5098431;28;20036;-71
2021/01/23 09:36:20;;;;;;;28.27;20.13;;;;;;;;;;5097182;28;20040;-71
2021/01/23 09:39:05;;;;;;;25.20;19.70;;;;;;;;;;5095565;28;20039;-72
2021/01/23 09:41:50;;;;;;;27.75;20.70;;;;;;;;;;5096957;28;20043;-71
2021/01/23 09:44:36;;;;;;;25.42;19.45;;;;;;;;;;5098724;28;20157;-72
2021/01/23 09:47:21;;;;;;;25.00;20.17;;;;;;;;;;5076801;28;20036;-72
2021/01/23 09:50:07;;;;;;;24.50;18.95;;;;;;;;;;5076519;28;20059;-71
2021/01/23 09:52:52;;;;;;;24.52;20.00;;;;;;;;;;5086962;28;20071;-71
2021/01/23 09:55:38;;;;;;;23.88;18.85;;;;;;;;;;5085104;28;20046;-71
2021/01/23 09:58:23;;;;;;;23.27;19.10;;;;;;;;;;5100641;28;20815;-71
2021/01/23 10:01:08;;;;;;;25.80;19.55;;;;;;;;;;5125653;22;20047;-72
2021/01/23 10:03:56;;;;;;;20.42;18.02;;;;;;;;;;5132136;28;20443;-72
2021/01/23 10:06:41;;;;;;;23.02;18.88;;;;;;;;;;5132498;28;20816;-72
2021/01/23 10:09:26;;;;;;;22.00;18.55;;;;;;;;;;5129237;28;20031;-72
2021/01/23 10:12:11;;;;;;;22.85;18.45;;;;;;;;;;5097097;28;20489;-73
2021/01/23 10:14:57;;;;;;;23.70;18.40;;;;;;;;;;5106971;28;20418;-72
2021/01/23 10:17:42;;;;;;;19.98;17.55;;;;;;;;;;5103112;28;20052;-72
2021/01/23 10:20:28;;;;;;;26.02;17.92;;;;;;;;;;5100413;28;20644;-72
2021/01/23 10:23:13;;;;;;;21.08;16.13;;;;;;;;;;5090814;28;20040;-72
2021/01/23 10:25:59;;;;;;;19.15;15.98;;;;;;;;;;5091643;28;20044;-72
2021/01/23 10:28:44;;;;;;;18.63;16.70;;;;;;;;;;5090305;28;20125;-72
2021/01/23 10:31:29;;;;;;;21.25;16.48;;;;;;;;;;5099226;28;20036;-72
2021/01/23 10:34:15;;;;;;;18.58;16.10;;;;;;;;;;5103418;28;20039;-72
2021/01/23 10:37:00;;;;;;;19.95;14.50;;;;;;;;;;5076680;28;20047;-72
2021/01/23 10:39:45;;;;;;;18.52;16.55;;;;;;;;;;5096775;28;20109;-72
2021/01/23 10:42:30;;;;;;;15.27;13.73;;;;;;;;;;5103259;28;20490;-72
2021/01/23 10:45:16;;;;;;;14.38;12.88;;;;;;;;;;5110427;28;20110;-73
2021/01/23 10:48:01;;;;;;;15.82;12.70;;;;;;;;;;5096485;28;20040;-72
2021/01/23 10:50:47;;;;;;;16.48;12.35;;;;;;;;;;5091228;28;20047;-73
2021/01/23 10:53:34;;;;;;;13.00;11.70;;;;;;;;;;5102431;28;20042;-72
2021/01/23 10:56:19;;;;;;;14.35;12.68;;;;;;;;;;5115428;27;20035;-72
2021/01/23 10:59:05;;;;;;;17.40;13.02;;;;;;;;;;5099496;28;20035;-72
2021/01/23 11:01:50;;;;;;;17.73;13.55;;;;;;;;;;5114137;28;20485;-72
2021/01/23 11:04:35;;;;;;;14.43;12.38;;;;;;;;;;5115359;28;20040;-72
2021/01/23 11:07:20;;;;;;;13.57;12.10;;;;;;;;;;5098640;28;20036;-73
2021/01/23 11:10:06;;;;;;;13.55;12.35;;;;;;;;;;5094835;28;20433;-72
2021/01/23 11:12:52;;;;;;;15.00;13.50;;;;;;;;;;5099488;28;20505;-72
2021/01/23 11:15:37;;;;;;;18.13;13.18;;;;;;;;;;5115464;28;20478;-72
2021/01/23 11:18:22;;;;;;;14.32;12.35;;;;;;;;;;5114923;28;20512;-72
2021/01/23 11:21:07;;;;;;;15.18;11.00;;;;;;;;;;5096616;28;20039;-74
2021/01/23 11:23:53;;;;;;;11.77;9.82;;;;;;;;;;5108654;28;20039;-75
2021/01/23 11:26:38;;;;;;;8.20;7.38;;;;;;;;;;5102751;28;20036;-74
2021/01/23 11:29:24;;;;;;;7.10;6.40;;;;;;;;;;5094648;28;20041;-68
2021/01/23 11:32:09;;;;;;;11.77;7.10;;;;;;;;;;5094266;28;20040;-69
2021/01/23 11:34:54;;;;;;;7.95;7.07;;;;;;;;;;5114148;28;20497;-69
2021/01/23 11:37:40;;;;;;;7.45;6.47;;;;;;;;;;5097233;28;20072;-68
2021/01/23 11:40:26;;;;;;;8.48;5.43;;;;;;;;;;5107867;28;20051;-69
2021/01/23 11:43:12;;;;;;;7.32;6.43;;;;;;;;;;5114691;28;20040;-68
2021/01/23 11:46:00;;;;;;;7.82;7.00;;;;;;;;;;5099663;28;20044;-69
2021/01/23 11:48:45;;;;;;;9.65;7.10;;;;;;;;;;5113186;28;20039;-69
2021/01/23 11:51:31;;;;;;;10.10;7.70;;;;;;;;;;5111725;28;20052;-68
2021/01/23 11:54:17;;;;;;;8.90;6.85;;;;;;;;;;5113407;28;20044;-68
2021/01/23 11:57:02;;;;;;;11.18;7.35;;;;;;;;;;5093877;28;20040;-68
2021/01/23 11:59:47;;;;;;;9.18;6.68;;;;;;;;;;5093539;28;20118;-68
2021/01/23 12:02:33;;;;;;;7.95;7.13;;;;;;;;;;5113471;28;20075;-67
2021/01/23 12:05:19;;;;;;;12.20;7.85;;;;;;;;;;5114160;28;20093;-68
2021/01/23 12:08:04;;;;;;;9.65;6.85;;;;;;;;;;5112988;28;20562;-67
2021/01/23 12:10:49;;;;;;;8.23;6.80;;;;;;;;;;5093453;28;20043;-67
2021/01/23 12:13:35;;;;;;;7.72;6.22;;;;;;;;;;5105164;28;20031;-67
2021/01/23 12:16:20;;;;;;;8.90;6.13;;;;;;;;;;5101319;28;20043;-68
2021/01/23 12:19:06;;;;;;;7.32;6.60;;;;;;;;;;5107624;28;20043;-67
2021/01/23 12:21:51;;;;;;;9.48;6.78;;;;;;;;;;5078324;28;20481;-67
2021/01/23 12:24:36;;;;;;;7.90;7.10;;;;;;;;;;5113724;28;20043;-67
2021/01/23 12:27:22;;;;;;;8.00;6.90;;;;;;;;;;5113606;28;20046;-67
2021/01/23 12:30:07;;;;;;;9.77;6.78;;;;;;;;;;5100211;28;20119;-68
2021/01/23 12:32:54;;;;;;;6.93;6.32;;;;;;;;;;5093079;28;20040;-68
2021/01/23 12:35:39;;;;;;;7.45;6.50;;;;;;;;;;5093803;28;20036;-68
2021/01/23 12:38:24;;;;;;;6.90;6.20;;;;;;;;;;5099343;28;20039;-67
2021/01/23 12:41:10;;;;;;;8.98;6.03;;;;;;;;;;5098245;28;20035;-67
2021/01/23 12:43:55;;;;;;;7.60;6.80;;;;;;;;;;5103287;28;20111;-67
2021/01/23 12:46:41;;;;;;;8.18;7.38;;;;;;;;;;5101152;28;20397;-67
2021/01/23 12:49:26;;;;;;;10.43;7.13;;;;;;;;;;5103680;28;20036;-67
2021/01/23 12:52:11;;;;;;;10.80;6.32;;;;;;;;;;5102950;28;20035;-67
2021/01/23 12:54:57;;;;;;;7.35;6.65;;;;;;;;;;5100991;28;20070;-66
2021/01/23 12:57:42;;;;;;;8.40;5.63;;;;;;;;;;5102226;28;20044;-67
2021/01/23 13:00:27;;;;;;;7.57;6.43;;;;;;;;;;5104801;28;20402;-67
2021/01/23 13:03:13;;;;;;;7.88;6.55;;;;;;;;;;5092756;28;20058;-67
2021/01/23 13:05:59;;;;;;;9.30;6.45;;;;;;;;;;5099825;28;20043;-67
2021/01/23 13:08:44;;;;;;;7.07;5.85;;;;;;;;;;5112962;28;20076;-67
2021/01/23 13:11:29;;;;;;;9.02;6.45;;;;;;;;;;5112462;28;20044;-67
2021/01/23 13:14:15;;;;;;;10.10;6.22;;;;;;;;;;5093726;28;20040;-67
2021/01/23 13:17:00;;;;;;;9.05;6.45;;;;;;;;;;5090375;28;20044;-67
2021/01/23 13:19:45;;;;;;;8.98;6.07;;;;;;;;;;5097650;28;20559;-67
2021/01/23 13:22:31;;;;;;;7.32;5.55;;;;;;;;;;5105219;28;20059;-67
2021/01/23 13:25:16;;;;;;;7.35;5.40;;;;;;;;;;5112775;27;20071;-67
2021/01/23 13:28:01;;;;;;;6.68;5.88;;;;;;;;;;5101934;28;20044;-67
2021/01/23 13:30:46;;;;;;;7.63;6.10;;;;;;;;;;5102527;28;20039;-67
2021/01/23 13:33:32;;;;;;;6.50;5.30;;;;;;;;;;5102025;28;20130;-67
2021/01/23 13:36:17;;;;;;;8.63;5.75;;;;;;;;;;5101119;28;20036;-67
2021/01/23 13:39:03;;;;;;;5.13;4.60;;;;;;;;;;5101795;28;20044;-67
2021/01/23 13:41:49;;;;;;;6.03;3.78;;;;;;;;;;5102499;28;20044;-67
2021/01/23 13:44:34;;;;;;;5.75;3.65;;;;;;;;;;5102905;28;20043;-67
2021/01/23 13:47:19;;;;;;;5.10;4.60;;;;;;;;;;5073089;28;70937;-67
2021/01/23 13:50:05;;;;;;;5.93;3.88;;;;;;;;;;5064073;28;20033;-67
2021/01/23 13:54:49;;;;;;;5.43;4.30;;;;;;;;;;5056447;27;20755;-66
2021/01/23 13:57:35;;;;;;;4.60;4.15;;;;;;;;;;5048870;28;20045;-67
2021/01/23 14:00:20;;;;;;;5.53;4.85;;;;;;;;;;5037601;28;20141;-68
2021/01/23 14:03:06;;;;;;;6.82;4.20;;;;;;;;;;5015311;28;20112;-67
2021/01/23 14:05:51;;;;;;;5.10;4.13;;;;;;;;;;5038411;28;20045;-66
2021/01/23 14:08:36;;;;;;;4.93;4.32;;;;;;;;;;5039047;28;20042;-66
2021/01/23 14:11:22;;;;;;;6.00;4.05;;;;;;;;;;5035581;28;20077;-66
2021/01/23 14:14:07;;;;;;;4.72;3.75;;;;;;;;;;5046474;28;20041;-66
2021/01/23 14:16:53;;;;;;;5.47;4.10;;;;;;;;;;5032619;28;20540;-67
2021/01/23 14:19:38;;;;;;;5.75;4.38;;;;;;;;;;5028378;28;20389;-67
2021/01/23 14:22:23;;;;;;;8.15;5.28;;;;;;;;;;5032163;28;20121;-67
2021/01/23 14:25:09;;;;;;;8.05;5.15;;;;;;;;;;5047107;28;20041;-67
2021/01/23 14:27:54;;;;;;;5.60;4.65;;;;;;;;;;5044797;28;20057;-67
2021/01/23 14:30:39;;;;;;;6.32;5.18;;;;;;;;;;5038288;28;20041;-67
2021/01/23 14:33:25;;;;;;;5.45;4.93;;;;;;;;;;5046854;28;20033;-67
2021/01/23 14:36:10;;;;;;;7.07;4.82;;;;;;;;;;5046158;28;20053;-67
2021/01/23 14:38:55;;;;;;;7.40;5.43;;;;;;;;;;5045576;28;20087;-67
2021/01/23 14:41:41;;;;;;;6.10;5.50;;;;;;;;;;5045398;28;20053;-67
2021/01/23 14:44:26;;;;;;;5.90;4.75;;;;;;;;;;5046541;28;20041;-67
2021/01/23 14:47:11;;;;;;;6.15;4.68;;;;;;;;;;5045823;28;20061;-67
2021/01/23 14:49:56;;;;;;;10.70;5.03;;;;;;;;;;5029563;28;20072;-67
2021/01/23 14:52:42;;;;;;;8.50;5.00;;;;;;;;;;5016479;28;20058;-67
2021/01/23 14:55:27;;;;;;;6.95;5.07;;;;;;;;;;5040405;28;20045;-66
2021/01/23 14:58:13;;;;;;;7.15;4.97;;;;;;;;;;5032554;28;20416;-67
2021/01/23 15:00:59;;;;;;;6.07;5.10;;;;;;;;;;5044448;28;20407;-66
2021/01/23 15:03:44;;;;;;;7.85;5.05;;;;;;;;;;5033648;28;20124;-67
2021/01/23 15:06:29;;;;;;;7.82;5.60;;;;;;;;;;5023604;28;20065;-66
2021/01/23 15:09:14;;;;;;;8.52;4.97;;;;;;;;;;5022337;28;20062;-67
2021/01/23 15:11:59;;;;;;;4.65;4.00;;;;;;;;;;5012720;28;20054;-66
2021/01/23 15:14:45;;;;;;;6.85;4.25;;;;;;;;;;5013336;28;20041;-66
2021/01/23 15:17:30;;;;;;;6.75;5.10;;;;;;;;;;5010771;28;20540;-67
2021/01/23 15:20:17;;;;;;;4.78;4.38;;;;;;;;;;5015228;28;20045;-66
2021/01/23 15:23:02;;;;;;;7.18;4.90;;;;;;;;;;5012641;28;20050;-66
2021/01/23 15:25:47;;;;;;;8.30;5.20;;;;;;;;;;5012752;28;20034;-66
2021/01/23 15:28:32;;;;;;;8.63;5.50;;;;;;;;;;5023908;28;20046;-66
2021/01/23 15:31:20;;;;;;;9.73;5.50;;;;;;;;;;5025150;28;20042;-67
2021/01/23 15:34:05;;;;;;;10.45;6.32;;;;;;;;;;5019951;28;20044;-67
2021/01/23 15:36:51;;;;;;;7.57;6.05;;;;;;;;;;5024115;28;20050;-66
2021/01/23 15:39:36;;;;;;;8.20;5.68;;;;;;;;;;5018468;28;20049;-67
2021/01/23 15:42:21;;;;;;;7.90;6.72;;;;;;;;;;5018625;28;20058;-67
2021/01/23 15:45:06;;;;;;;8.25;6.13;;;;;;;;;;5020650;28;20116;-66
2021/01/23 15:47:52;;;;;;;9.93;6.55;;;;;;;;;;5015728;28;20132;-67
2021/01/23 15:50:37;;;;;;;9.00;6.57;;;;;;;;;;5031326;28;20059;-66
2021/01/23 15:53:23;;;;;;;10.00;6.72;;;;;;;;;;5031119;28;20631;-66
2021/01/23 15:56:08;;;;;;;9.23;6.95;;;;;;;;;;5031566;28;20046;-67
2021/01/23 15:58:54;;;;;;;12.50;7.32;;;;;;;;;;5031241;28;20045;-67
2021/01/23 16:01:39;;;;;;;9.20;7.95;;;;;;;;;;5023845;22;20151;-66
2021/01/23 16:04:24;;;;;;;8.35;7.18;;;;;;;;;;5010936;28;20073;-67
2021/01/23 16:07:09;;;;;;;9.85;7.20;;;;;;;;;;5023152;28;20467;-67
2021/01/23 16:09:55;;;;;;;6.95;6.22;;;;;;;;;;5011982;28;20504;-66
2021/01/23 16:12:40;;;;;;;8.60;6.75;;;;;;;;;;5011671;28;20058;-67
2021/01/23 16:15:25;;;;;;;8.10;6.35;;;;;;;;;;5011055;28;20050;-66
2021/01/23 16:18:11;;;;;;;12.48;7.10;;;;;;;;;;5010923;28;20058;-66